Time;durP1;ratioP1;P1;durP2;ratioP2;P2;SDS_P1;SDS_P2;PMS_P1;PMS_P2;Temp;Humidity;BMP_temperature;BMP_pressure;BME280_temperature;BME280_humidity;BME280_pressure;Samples;Min_cycle;Max_cycle;Signal;HPM_P1;HPM_P2
2021/03/13 08:03:29;;;;;;;0.90;0.40;;;;;;;;;;10386141;28;19917;-87
2021/03/13 08:08:33;;;;;;;1.52;0.60;;;;;;;;;;10387164;28;20053;-86
2021/03/13 08:13:37;;;;;;;1.08;0.60;;;;;;;;;;10389804;28;20116;-87
2021/03/13 08:18:47;;;;;;;1.95;0.68;;;;;;;;;;10387537;28;20052;-85
2021/03/13 08:23:52;;;;;;;1.10;0.60;;;;;;;;;;10387850;28;20048;-84
2021/03/13 08:28:56;;;;;;;1.77;0.70;;;;;;;;;;10373272;28;20045;-84
2021/03/13 08:33:58;;;;;;;2.63;1.00;;;;;;;;;;10390144;28;20119;-84
2021/03/13 08:39:02;;;;;;;2.63;1.00;;;;;;;;;;10398163;28;20042;-84
2021/03/13 08:44:18;;;;;;;3.10;1.10;;;;;;;;;;10414431;28;20022;-86
2021/03/13 08:49:40;;;;;;;1.58;0.90;;;;;;;;;;10408275;28;20041;-86
2021/03/13 08:54:41;;;;;;;3.40;1.50;;;;;;;;;;10389672;28;20480;-86
2021/03/13 08:59:45;;;;;;;2.88;1.10;;;;;;;;;;10389438;28;20030;-85
2021/03/13 09:04:55;;;;;;;3.22;0.82;;;;;;;;;;10388598;28;20041;-85
2021/03/13 09:09:56;;;;;;;;;;;;;;;;;;10388456;28;20065;-85
2021/03/13 09:14:59;;;;;;;2.67;1.30;;;;;;;;;;10389598;28;19920;-86
2021/03/13 09:20:21;;;;;;;2.85;1.30;;;;;;;;;;10389110;28;20030;-87
2021/03/13 09:25:34;;;;;;;2.13;1.02;;;;;;;;;;10389170;28;20048;-85
2021/03/13 09:30:35;;;;;;;3.22;1.33;;;;;;;;;;10393098;28;20073;-84
2021/03/13 09:35:36;;;;;;;3.00;1.42;;;;;;;;;;10387128;28;20034;-83
2021/03/13 09:40:37;;;;;;;3.35;1.27;;;;;;;;;;10390222;28;20058;-85
2021/03/13 09:45:38;;;;;;;6.90;1.17;;;;;;;;;;10394277;28;20033;-85
2021/03/13 09:50:39;;;;;;;4.30;1.40;;;;;;;;;;10392387;28;20137;-84
2021/03/13 09:55:45;;;;;;;3.25;1.25;;;;;;;;;;10389311;28;20046;-85
2021/03/13 10:00:45;;;;;;;3.72;1.10;;;;;;;;;;10386614;28;20399;-84
2021/03/13 10:05:50;;;;;;;4.50;1.75;;;;;;;;;;10387561;28;20105;-83
2021/03/13 10:10:51;;;;;;;3.10;1.30;;;;;;;;;;10387067;28;20454;-83
2021/03/13 10:15:52;;;;;;;2.63;1.00;;;;;;;;;;10389806;28;20038;-85
2021/03/13 10:20:54;;;;;;;3.53;1.20;;;;;;;;;;10390854;28;20098;-83
2021/03/13 10:26:00;;;;;;;3.78;1.15;;;;;;;;;;10391813;28;20038;-87
2021/03/13 10:31:05;;;;;;;3.33;1.40;;;;;;;;;;10392346;28;20046;-85
2021/03/13 10:36:06;;;;;;;4.32;1.45;;;;;;;;;;10389993;28;20068;-85
2021/03/13 10:41:08;;;;;;;5.65;1.75;;;;;;;;;;10391655;28;20400;-85
2021/03/13 10:46:10;;;;;;;6.82;1.60;;;;;;;;;;10391104;28;20096;-85
2021/03/13 10:51:21;;;;;;;4.28;1.27;;;;;;;;;;10392629;28;20097;-85
2021/03/13 10:56:22;;;;;;;4.80;1.73;;;;;;;;;;10391741;28;20038;-86
2021/03/13 11:01:23;;;;;;;6.65;1.90;;;;;;;;;;10390317;28;20493;-86
2021/03/13 11:06:29;;;;;;;3.67;1.73;;;;;;;;;;10402502;28;20022;-85
2021/03/13 11:11:30;;;;;;;5.15;1.88;;;;;;;;;;10412013;28;20057;-85
2021/03/13 11:16:31;;;;;;;4.93;1.75;;;;;;;;;;10403508;28;20038;-87
2021/03/13 11:21:32;;;;;;;4.47;1.70;;;;;;;;;;10389360;28;20097;-84
2021/03/13 11:26:32;;;;;;;4.75;1.38;;;;;;;;;;10393016;28;20065;-85
2021/03/13 11:31:34;;;;;;;5.70;1.50;;;;;;;;;;10395516;28;20057;-86
2021/03/13 11:36:34;;;;;;;7.43;1.98;;;;;;;;;;10401529;28;20045;-85
2021/03/13 11:41:35;;;;;;;4.28;2.25;;;;;;;;;;10398620;28;20041;-86
2021/03/13 11:46:37;;;;;;;5.13;1.75;;;;;;;;;;10397277;28;20038;-83
2021/03/13 11:51:38;;;;;;;5.05;1.52;;;;;;;;;;10395343;28;20048;-85
2021/03/13 11:56:39;;;;;;;4.03;1.50;;;;;;;;;;10394861;28;20136;-85
2021/03/13 12:01:40;;;;;;;5.32;1.50;;;;;;;;;;10396888;28;20034;-83
2021/03/13 12:06:41;;;;;;;4.80;1.77;;;;;;;;;;10394147;28;20045;-83
2021/03/13 12:11:42;;;;;;;6.60;2.55;;;;;;;;;;10395062;28;20044;-85
2021/03/13 12:16:43;;;;;;;6.57;2.03;;;;;;;;;;10396778;28;20503;-84
2021/03/13 12:21:44;;;;;;;4.47;1.55;;;;;;;;;;10395487;28;20041;-83
2021/03/13 12:26:45;;;;;;;5.43;1.85;;;;;;;;;;10395594;28;20045;-84
2021/03/13 12:31:46;;;;;;;5.53;2.20;;;;;;;;;;10395095;28;20038;-84
2021/03/13 12:36:47;;;;;;;5.63;2.10;;;;;;;;;;10396543;28;20034;-84
2021/03/13 12:41:48;;;;;;;5.40;1.70;;;;;;;;;;10394846;28;20034;-83
2021/03/13 12:46:49;;;;;;;5.88;1.55;;;;;;;;;;10394098;28;20077;-84
2021/03/13 12:51:50;;;;;;;4.07;1.83;;;;;;;;;;10393033;28;20358;-82
2021/03/13 12:56:51;;;;;;;5.72;1.80;;;;;;;;;;10392560;28;20114;-83
2021/03/13 13:01:54;;;;;;;4.95;1.77;;;;;;;;;;10399431;28;20141;-86
2021/03/13 13:06:55;;;;;;;5.25;2.15;;;;;;;;;;10401885;28;20038;-86
2021/03/13 13:11:56;;;;;;;5.03;1.35;;;;;;;;;;10402779;28;20102;-85
2021/03/13 13:16:57;;;;;;;3.53;1.38;;;;;;;;;;10398041;28;20042;-86
2021/03/13 13:21:58;;;;;;;3.80;1.45;;;;;;;;;;10399419;28;20427;-86
2021/03/13 13:26:59;;;;;;;3.55;1.30;;;;;;;;;;10400410;28;20129;-85
2021/03/13 13:32:00;;;;;;;7.22;1.60;;;;;;;;;;10405009;28;20042;-84
2021/03/13 13:37:01;;;;;;;3.80;1.40;;;;;;;;;;10416488;28;20033;-84
2021/03/13 13:42:03;;;;;;;5.75;1.88;;;;;;;;;;10417755;28;20142;-85
2021/03/13 13:47:04;;;;;;;6.20;2.00;;;;;;;;;;10400016;28;20061;-86
2021/03/13 13:52:05;;;;;;;5.65;2.22;;;;;;;;;;10400034;28;20070;-87
2021/03/13 13:57:06;;;;;;;5.30;1.70;;;;;;;;;;10398942;28;20038;-86
2021/03/13 14:02:07;;;;;;;6.00;3.40;;;;;;;;;;10398292;28;20081;-87
2021/03/13 14:07:08;;;;;;;3.55;1.45;;;;;;;;;;10399016;28;20381;-87
2021/03/13 14:12:09;;;;;;;5.18;1.70;;;;;;;;;;10398392;28;20060;-86
2021/03/13 14:17:10;;;;;;;3.47;1.42;;;;;;;;;;10398752;28;20037;-86
2021/03/13 14:22:11;;;;;;;4.00;1.58;;;;;;;;;;10398324;28;20029;-86
2021/03/13 14:27:12;;;;;;;5.68;1.80;;;;;;;;;;10400348;28;20044;-86
2021/03/13 14:32:13;;;;;;;4.05;1.65;;;;;;;;;;10400407;28;20045;-86
2021/03/13 14:37:14;;;;;;;5.43;1.75;;;;;;;;;;10401436;28;20136;-86
2021/03/13 14:42:15;;;;;;;4.32;1.92;;;;;;;;;;10401815;28;20033;-86
2021/03/13 14:47:17;;;;;;;4.20;1.73;;;;;;;;;;10409255;28;20039;-86
2021/03/13 14:52:19;;;;;;;5.95;3.17;;;;;;;;;;10409168;28;20049;-85
2021/03/13 14:57:20;;;;;;;4.72;1.80;;;;;;;;;;10404608;28;20056;-86
2021/03/13 15:02:20;;;;;;;4.95;1.85;;;;;;;;;;10410169;28;20046;-85
2021/03/13 15:07:21;;;;;;;3.17;1.48;;;;;;;;;;10413580;28;20025;-85
2021/03/13 15:12:22;;;;;;;;;;;;;;;;;;10413507;28;20040;-85
2021/03/13 15:17:23;;;;;;;2.55;0.95;;;;;;;;;;10410473;28;19960;-86
2021/03/13 15:22:24;;;;;;;;;;;;;;;;;;10408242;28;20054;-86
2021/03/13 15:27:25;;;;;;;2.95;1.15;;;;;;;;;;10407147;28;19905;-87
2021/03/13 15:32:26;;;;;;;4.07;1.25;;;;;;;;;;10405807;28;20176;-86
2021/03/13 15:37:30;;;;;;;3.55;1.20;;;;;;;;;;10405661;28;20084;-86
2021/03/13 15:42:31;;;;;;;3.80;1.20;;;;;;;;;;10413240;28;20026;-86
2021/03/13 15:47:32;;;;;;;4.10;1.20;;;;;;;;;;10415428;28;20026;-85
2021/03/13 15:52:33;;;;;;;4.35;1.45;;;;;;;;;;10411951;28;20034;-86
2021/03/13 15:57:34;;;;;;;3.10;1.13;;;;;;;;;;10411494;28;20038;-86
2021/03/13 16:02:36;;;;;;;5.20;1.33;;;;;;;;;;10412240;28;20049;-86
2021/03/13 16:07:37;;;;;;;3.60;1.02;;;;;;;;;;10416232;28;20052;-87
2021/03/13 16:12:38;;;;;;;2.92;1.10;;;;;;;;;;10413654;28;20098;-85
2021/03/13 16:17:40;;;;;;;3.75;1.38;;;;;;;;;;10415884;28;20106;-87
2021/03/13 16:22:41;;;;;;;3.15;0.82;;;;;;;;;;10418001;28;20034;-86
2021/03/13 16:27:43;;;;;;;2.97;0.95;;;;;;;;;;10402319;28;20038;-86
2021/03/13 16:32:44;;;;;;;2.75;0.93;;;;;;;;;;10404546;28;20030;-86
2021/03/13 16:37:45;;;;;;;2.83;1.00;;;;;;;;;;10400754;28;20499;-86
2021/03/13 16:42:46;;;;;;;2.78;1.23;;;;;;;;;;10405555;28;20056;-86
2021/03/13 16:47:48;;;;;;;5.78;1.48;;;;;;;;;;10399047;28;20408;-87
2021/03/13 16:52:49;;;;;;;5.72;2.67;;;;;;;;;;10399072;28;20389;-87
2021/03/13 16:57:50;;;;;;;4.07;1.20;;;;;;;;;;10398933;28;20034;-85
2021/03/13 17:02:51;;;;;;;3.28;1.27;;;;;;;;;;10398202;28;20042;-87
2021/03/13 17:07:52;;;;;;;3.97;1.35;;;;;;;;;;10398521;28;20053;-87
2021/03/13 17:13:00;;;;;;;5.85;1.50;;;;;;;;;;10397149;28;20037;-85
2021/03/13 17:18:01;;;;;;;5.55;1.67;;;;;;;;;;10397543;28;20030;-86
2021/03/13 17:23:03;;;;;;;4.53;1.50;;;;;;;;;;10400769;28;20026;-87
2021/03/13 17:28:06;;;;;;;4.22;1.70;;;;;;;;;;10399684;28;20037;-87
2021/03/13 17:33:07;;;;;;;5.78;1.65;;;;;;;;;;10399323;28;20072;-84
2021/03/13 17:38:09;;;;;;;3.53;1.50;;;;;;;;;;10397781;28;20042;-84
2021/03/13 17:43:12;;;;;;;6.13;1.80;;;;;;;;;;10397914;28;20034;-85
2021/03/13 17:48:13;;;;;;;4.90;1.92;;;;;;;;;;10396958;28;20057;-87
2021/03/13 17:53:14;;;;;;;5.32;1.80;;;;;;;;;;10400519;28;20037;-85
2021/03/13 17:58:15;;;;;;;4.80;2.10;;;;;;;;;;10399094;28;20042;-86
2021/03/13 18:03:16;;;;;;;3.80;1.60;;;;;;;;;;10397582;28;20357;-86
2021/03/13 18:08:17;;;;;;;2.70;1.00;;;;;;;;;;10397431;28;20033;-86
2021/03/13 18:13:18;;;;;;;1.65;0.82;;;;;;;;;;10397996;28;20042;-86
2021/03/13 18:18:19;;;;;;;3.00;1.10;;;;;;;;;;10398871;28;20416;-86
2021/03/13 18:23:23;;;;;;;3.38;1.05;;;;;;;;;;10400597;28;20030;-86
2021/03/13 18:28:27;;;;;;;4.72;1.27;;;;;;;;;;10403036;28;20049;-86
2021/03/13 18:33:28;;;;;;;2.33;1.00;;;;;;;;;;10407692;28;20124;-88
2021/03/13 18:38:29;;;;;;;3.47;1.40;;;;;;;;;;10415670;28;20117;-86
2021/03/13 18:43:30;;;;;;;3.50;1.60;;;;;;;;;;10400792;28;20034;-86
2021/03/13 18:48:31;;;;;;;3.72;1.30;;;;;;;;;;10400105;28;20129;-85
2021/03/13 18:53:35;;;;;;;3.20;1.60;;;;;;;;;;10397149;28;20034;-86
2021/03/13 18:58:36;;;;;;;3.55;1.50;;;;;;;;;;10395922;28;20115;-86
2021/03/13 19:03:37;;;;;;;4.75;1.33;;;;;;;;;;10394449;28;20044;-86
2021/03/13 19:08:38;;;;;;;3.38;1.48;;;;;;;;;;10396943;28;20045;-85
2021/03/13 19:13:39;;;;;;;3.20;1.10;;;;;;;;;;10398425;28;20030;-85
2021/03/13 19:18:40;;;;;;;3.50;1.42;;;;;;;;;;10397255;28;20065;-85
2021/03/13 19:23:41;;;;;;;4.88;1.55;;;;;;;;;;10397426;28;20031;-86
2021/03/13 19:28:42;;;;;;;4.53;1.33;;;;;;;;;;10395183;28;20488;-86
2021/03/13 19:33:43;;;;;;;4.20;1.67;;;;;;;;;;10394478;28;20037;-86
2021/03/13 19:38:44;;;;;;;5.22;1.83;;;;;;;;;;10393977;28;20037;-86
2021/03/13 19:43:47;;;;;;;3.95;1.73;;;;;;;;;;10401827;28;20037;-86
2021/03/13 19:48:48;;;;;;;4.55;1.40;;;;;;;;;;10401475;28;20045;-85
2021/03/13 19:53:49;;;;;;;2.78;1.30;;;;;;;;;;10408689;28;20041;-85
2021/03/13 19:58:50;;;;;;;5.05;2.03;;;;;;;;;;10407866;28;20037;-85
2021/03/13 20:03:51;;;;;;;5.70;1.90;;;;;;;;;;10403257;28;20492;-86
2021/03/13 20:08:52;;;;;;;4.93;1.50;;;;;;;;;;10401549;28;20035;-86
2021/03/13 20:13:57;;;;;;;3.80;1.70;;;;;;;;;;10403862;28;20041;-86
2021/03/13 20:18:59;;;;;;;4.43;1.90;;;;;;;;;;10407422;28;20120;-86
2021/03/13 20:24:00;;;;;;;3.95;1.55;;;;;;;;;;10401483;28;20040;-86
2021/03/13 20:29:01;;;;;;;5.15;1.65;;;;;;;;;;10402676;28;20026;-87
2021/03/13 20:34:02;;;;;;;4.43;2.13;;;;;;;;;;10402667;28;20100;-86
2021/03/13 20:39:04;;;;;;;4.38;1.85;;;;;;;;;;10399388;28;20500;-87
2021/03/13 20:44:05;;;;;;;5.82;2.00;;;;;;;;;;10401815;28;20149;-86
2021/03/13 20:49:06;;;;;;;5.53;2.50;;;;;;;;;;10399216;28;20022;-86
2021/03/13 20:54:07;;;;;;;4.70;1.80;;;;;;;;;;10401200;28;20077;-86
2021/03/13 20:59:08;;;;;;;4.57;1.88;;;;;;;;;;10406850;28;20034;-85
2021/03/13 21:04:09;;;;;;;5.43;2.13;;;;;;;;;;10415214;28;20101;-85
2021/03/13 21:09:11;;;;;;;4.60;1.77;;;;;;;;;;10409190;28;20045;-86
2021/03/13 21:14:12;;;;;;;4.30;1.90;;;;;;;;;;10398042;28;20033;-86
2021/03/13 21:19:13;;;;;;;3.20;1.75;;;;;;;;;;10397842;28;20061;-85
2021/03/13 21:24:14;;;;;;;4.30;1.55;;;;;;;;;;10396557;28;20045;-86
2021/03/13 21:29:15;;;;;;;3.95;1.92;;;;;;;;;;10397067;28;20037;-84
2021/03/13 21:34:17;;;;;;;5.90;2.08;;;;;;;;;;10396240;28;20504;-85
2021/03/13 21:39:21;;;;;;;5.18;2.08;;;;;;;;;;10397073;28;20476;-85
2021/03/13 21:44:22;;;;;;;5.57;2.00;;;;;;;;;;10396564;28;20037;-86
2021/03/13 21:49:23;;;;;;;2.90;1.30;;;;;;;;;;10394671;28;20044;-86
2021/03/13 21:54:24;;;;;;;4.10;1.60;;;;;;;;;;10395426;28;20049;-85
2021/03/13 21:59:25;;;;;;;3.75;1.45;;;;;;;;;;10394262;28;20061;-86
2021/03/13 22:04:29;;;;;;;3.60;1.73;;;;;;;;;;10394402;28;20038;-85
2021/03/13 22:09:32;;;;;;;4.13;1.50;;;;;;;;;;10395233;28;20547;-86
2021/03/13 22:14:33;;;;;;;4.80;1.48;;;;;;;;;;10395905;28;20057;-86
2021/03/13 22:19:34;;;;;;;5.15;1.70;;;;;;;;;;10396916;28;20040;-87
2021/03/13 22:24:35;;;;;;;4.90;1.85;;;;;;;;;;10399114;28;20065;-85
2021/03/13 22:29:36;;;;;;;5.80;1.80;;;;;;;;;;10398962;28;20042;-86
2021/03/13 22:34:37;;;;;;;4.90;2.10;;;;;;;;;;10398675;28;20048;-86
2021/03/13 22:39:38;;;;;;;5.28;1.95;;;;;;;;;;10399436;28;20062;-86
2021/03/13 22:44:39;;;;;;;3.17;1.48;;;;;;;;;;10387432;28;20144;-86
2021/03/13 22:49:40;;;;;;;3.65;1.30;;;;;;;;;;10385515;28;20078;-87
2021/03/13 22:54:41;;;;;;;3.67;1.67;;;;;;;;;;10386947;28;20042;-86
2021/03/13 22:59:43;;;;;;;3.30;1.30;;;;;;;;;;10388728;28;20050;-86
2021/03/13 23:04:44;;;;;;;2.85;1.10;;;;;;;;;;10386607;28;20551;-86
2021/03/13 23:09:45;;;;;;;5.03;1.77;;;;;;;;;;10389231;28;20069;-87
2021/03/13 23:14:46;;;;;;;3.80;1.48;;;;;;;;;;10388890;28;20049;-86
2021/03/13 23:19:47;;;;;;;2.45;1.17;;;;;;;;;;10388748;28;20084;-87
2021/03/13 23:24:48;;;;;;;4.32;1.70;;;;;;;;;;10391733;28;20033;-86
2021/03/13 23:29:49;;;;;;;2.33;1.20;;;;;;;;;;10409157;28;20073;-86
2021/03/13 23:34:50;;;;;;;4.82;1.58;;;;;;;;;;10418053;28;20038;-86
2021/03/13 23:39:51;;;;;;;3.92;1.17;;;;;;;;;;10395005;28;20064;-86
2021/03/13 23:44:52;;;;;;;3.38;1.40;;;;;;;;;;10393057;28;20099;-86
2021/03/13 23:49:56;;;;;;;2.90;1.23;;;;;;;;;;10392301;28;20145;-86
2021/03/13 23:54:57;;;;;;;3.38;1.30;;;;;;;;;;10400448;28;20507;-86
